Time;durP1;ratioP1;P1;durP2;ratioP2;P2;SDS_P1;SDS_P2;PMS_P1;PMS_P2;Temp;Humidity;BMP_temperature;BMP_pressure;BME280_temperature;BME280_humidity;BME280_pressure;Samples;Min_cycle;Max_cycle;Signal;HPM_P1;HPM_P2
2022/07/05 00:00:48;;;;;;;14.48;2.75;;;14.70;99.90;;;;;;5035538;28;20104;-70
2022/07/05 00:03:14;;;;;;;8.07;1.73;;;14.80;99.90;;;;;;5035394;28;20060;-69
2022/07/05 00:05:40;;;;;;;9.90;1.92;;;14.80;99.90;;;;;;5035182;28;20041;-70
2022/07/05 00:08:06;;;;;;;17.35;2.42;;;14.80;99.90;;;;;;5035212;28;20028;-70
2022/07/05 00:10:33;;;;;;;11.02;2.80;;;14.70;99.90;;;;;;5035067;28;20109;-70
2022/07/05 00:12:59;;;;;;;6.07;1.80;;;14.70;99.90;;;;;;5034957;28;20033;-70
2022/07/05 00:15:24;;;;;;;12.57;2.75;;;14.60;99.90;;;;;;5034813;28;20032;-69
2022/07/05 00:17:50;;;;;;;10.15;2.05;;;14.50;99.90;;;;;;5035198;28;20543;-70
2022/07/05 00:20:15;;;;;;;11.63;2.63;;;14.50;99.90;;;;;;5034645;28;20496;-70
2022/07/05 00:22:42;;;;;;;16.08;2.83;;;14.40;99.90;;;;;;5035180;28;20028;-70
2022/07/05 00:25:08;;;;;;;12.02;3.13;;;14.40;99.90;;;;;;5034801;28;20025;-69
2022/07/05 00:27:33;;;;;;;11.30;2.35;;;14.30;99.90;;;;;;5034782;28;20040;-70
2022/07/05 00:29:59;;;;;;;11.82;2.38;;;14.40;99.90;;;;;;5034748;28;20030;-70
2022/07/05 00:32:25;;;;;;;10.50;2.10;;;14.40;99.90;;;;;;5034733;28;20478;-70
2022/07/05 00:34:51;;;;;;;9.23;1.80;;;14.40;99.90;;;;;;5034668;28;20048;-70
2022/07/05 00:37:16;;;;;;;12.15;2.42;;;14.40;99.90;;;;;;5034763;28;20040;-70
2022/07/05 00:39:42;;;;;;;10.50;2.90;;;14.40;99.90;;;;;;5034587;28;20029;-70
2022/07/05 00:42:08;;;;;;;7.90;1.45;;;14.40;99.90;;;;;;5034711;28;20013;-70
2022/07/05 00:44:39;;;;;;;9.48;1.67;;;14.40;99.90;;;;;;5034511;28;20540;-70
2022/07/05 00:47:06;;;;;;;16.83;2.67;;;14.40;99.90;;;;;;5034545;28;20584;-69
2022/07/05 00:49:33;;;;;;;14.32;2.15;;;14.50;99.90;;;;;;5034635;28;20025;-70
2022/07/05 00:52:00;;;;;;;11.88;1.60;;;14.50;99.90;;;;;;5034287;28;20029;-69
2022/07/05 00:54:27;;;;;;;11.18;1.80;;;14.50;99.90;;;;;;5016614;28;20045;-70
2022/07/05 00:56:53;;;;;;;11.18;1.75;;;14.40;99.90;;;;;;5044708;22;20133;-67
2022/07/05 00:59:18;;;;;;;11.45;1.75;;;14.40;99.90;;;;;;5014074;28;20102;-67
2022/07/05 01:01:44;;;;;;;13.65;2.20;;;14.30;99.90;;;;;;5014059;28;20054;-67
2022/07/05 01:04:11;;;;;;;11.07;1.80;;;14.30;99.90;;;;;;5014255;28;20029;-67
2022/07/05 01:06:38;;;;;;;9.38;1.88;;;14.20;99.90;;;;;;5013717;28;20113;-66
2022/07/05 01:09:04;;;;;;;13.45;3.05;;;14.20;99.90;;;;;;5013890;28;20097;-67
2022/07/05 01:11:30;;;;;;;13.73;2.55;;;14.10;99.90;;;;;;5013847;28;20034;-67
2022/07/05 01:13:58;;;;;;;10.63;2.17;;;14.00;99.90;;;;;;5013832;28;20113;-66
2022/07/05 01:16:24;;;;;;;10.88;1.63;;;13.90;99.90;;;;;;5013684;28;20080;-67
2022/07/05 01:18:50;;;;;;;7.43;2.10;;;13.80;99.90;;;;;;5013792;28;20022;-67
2022/07/05 01:21:19;;;;;;;14.00;1.92;;;13.70;99.90;;;;;;5014012;28;20466;-67
2022/07/05 01:23:45;;;;;;;13.00;1.92;;;13.60;99.90;;;;;;5013950;28;20026;-67
2022/07/05 01:26:11;;;;;;;8.95;1.67;;;13.60;99.90;;;;;;5013660;28;20025;-66
2022/07/05 01:28:37;;;;;;;17.20;2.33;;;13.60;99.90;;;;;;5013931;28;20367;-67
2022/07/05 01:31:02;;;;;;;12.57;1.75;;;13.60;99.90;;;;;;5013941;28;20470;-67
2022/07/05 01:33:30;;;;;;;13.55;1.85;;;13.60;99.90;;;;;;5013693;28;20029;-67
2022/07/05 01:35:57;;;;;;;14.20;2.53;;;13.50;99.90;;;;;;5013601;28;20014;-67
2022/07/05 01:38:24;;;;;;;8.38;2.10;;;13.50;99.90;;;;;;5013542;28;20040;-67
2022/07/05 01:40:51;;;;;;;19.13;1.77;;;13.40;99.90;;;;;;5013666;28;20110;-67
2022/07/05 01:43:21;;;;;;;13.95;2.38;;;13.30;99.90;;;;;;5013769;28;20080;-67
2022/07/05 01:45:47;;;;;;;11.65;1.88;;;13.30;99.90;;;;;;5013336;28;20033;-66
2022/07/05 01:48:17;;;;;;;5.75;1.70;;;13.20;99.90;;;;;;5013482;28;20529;-67
2022/07/05 01:50:53;;;;;;;9.27;1.50;;;13.20;99.90;;;;;;5013330;28;20105;-67
2022/07/05 01:53:38;;;;;;;6.07;1.38;;;13.10;99.90;;;;;;5013452;28;20026;-67
2022/07/05 01:56:05;;;;;;;10.25;1.05;;;13.00;99.90;;;;;;5013473;28;20486;-67
2022/07/05 01:58:31;;;;;;;5.43;1.27;;;12.80;99.90;;;;;;5013637;28;20022;-67
2022/07/05 02:00:58;;;;;;;8.50;1.80;;;12.70;99.90;;;;;;5013280;28;20022;-67
2022/07/05 02:03:24;;;;;;;3.85;1.40;;;12.60;99.90;;;;;;5013183;28;20090;-67
2022/07/05 02:05:50;;;;;;;6.32;1.50;;;12.50;99.90;;;;;;5013245;28;20034;-67
2022/07/05 02:08:17;;;;;;;11.23;1.60;;;12.40;99.90;;;;;;5013863;28;20036;-67
2022/07/05 02:10:43;;;;;;;17.98;1.88;;;12.40;99.90;;;;;;5016827;28;20029;-67
2022/07/05 02:13:09;;;;;;;11.13;1.70;;;12.50;99.90;;;;;;5016984;28;20084;-66
2022/07/05 02:15:37;;;;;;;11.77;2.58;;;12.70;99.90;;;;;;5016817;28;20033;-67
2022/07/05 02:18:03;;;;;;;8.77;1.83;;;12.90;99.90;;;;;;5016986;28;20061;-67
2022/07/05 02:20:30;;;;;;;16.80;2.03;;;13.10;99.90;;;;;;5016882;28;20026;-67
2022/07/05 02:22:55;;;;;;;6.18;1.20;;;13.20;99.90;;;;;;5016877;28;20033;-67
2022/07/05 02:25:21;;;;;;;18.65;2.25;;;13.40;99.90;;;;;;5017020;28;20062;-66
2022/07/05 02:27:47;;;;;;;12.02;1.73;;;13.50;99.90;;;;;;5016769;28;20494;-67
2022/07/05 02:30:13;;;;;;;8.65;1.17;;;13.50;99.90;;;;;;5015566;28;20040;-67
2022/07/05 02:32:39;;;;;;;19.23;1.75;;;13.70;99.90;;;;;;5017011;28;20030;-67
2022/07/05 02:35:06;;;;;;;9.15;1.77;;;13.80;99.90;;;;;;5016534;28;20394;-66
2022/07/05 02:37:32;;;;;;;7.43;1.00;;;13.90;99.90;;;;;;5016515;28;20018;-66
2022/07/05 02:39:57;;;;;;;8.73;1.73;;;14.00;99.90;;;;;;5015065;28;20024;-66
2022/07/05 02:42:23;;;;;;;11.35;1.58;;;14.00;99.90;;;;;;5016522;28;20025;-67
2022/07/05 02:44:48;;;;;;;4.03;1.42;;;14.00;99.90;;;;;;5016536;28;20375;-67
2022/07/05 02:47:14;;;;;;;15.50;1.30;;;14.10;99.90;;;;;;5016359;28;20057;-67
2022/07/05 02:49:39;;;;;;;5.28;1.27;;;14.10;99.90;;;;;;5016980;28;20029;-67
2022/07/05 02:52:05;;;;;;;14.80;1.52;;;14.10;99.90;;;;;;5016489;28;20022;-66
2022/07/05 02:54:31;;;;;;;9.68;2.03;;;14.00;99.90;;;;;;5015809;28;20034;-66
2022/07/05 02:56:56;;;;;;;6.32;1.15;;;14.00;99.90;;;;;;5016133;28;20117;-67
2022/07/05 02:59:22;;;;;;;7.88;1.40;;;13.90;99.90;;;;;;5016224;28;20371;-67
2022/07/05 03:01:47;;;;;;;14.95;1.88;;;13.90;99.90;;;;;;5016055;28;20381;-67
2022/07/05 03:04:13;;;;;;;9.35;1.88;;;13.80;99.90;;;;;;5016127;28;20083;-67
2022/07/05 03:06:39;;;;;;;6.32;1.48;;;13.80;99.90;;;;;;5016045;28;20033;-67
2022/07/05 03:09:05;;;;;;;6.88;1.23;;;13.70;99.90;;;;;;5016366;28;20528;-67
2022/07/05 03:11:30;;;;;;;11.63;1.30;;;13.80;99.90;;;;;;5015951;28;20036;-67
2022/07/05 03:13:56;;;;;;;9.00;1.65;;;13.80;99.90;;;;;;5015731;28;20396;-66
2022/07/05 03:16:23;;;;;;;6.50;1.35;;;13.80;99.90;;;;;;5015807;28;20030;-67
2022/07/05 03:18:49;;;;;;;9.68;1.58;;;13.80;99.90;;;;;;5015826;28;20552;-67
2022/07/05 03:21:15;;;;;;;9.02;1.30;;;13.70;99.90;;;;;;5015443;28;20029;-67
2022/07/05 03:23:40;;;;;;;14.60;1.30;;;13.60;99.90;;;;;;5015960;28;20029;-67
2022/07/05 03:26:06;;;;;;;10.10;1.60;;;13.50;99.90;;;;;;5015809;28;20034;-67
2022/07/05 03:28:32;;;;;;;6.47;1.30;;;13.50;99.90;;;;;;5015665;28;20065;-67
2022/07/05 03:30:58;;;;;;;12.88;1.55;;;13.30;99.90;;;;;;5015813;28;20528;-66
2022/07/05 03:33:23;;;;;;;8.18;1.52;;;13.20;99.90;;;;;;5015597;28;20425;-67
2022/07/05 03:35:49;;;;;;;8.98;1.88;;;13.20;99.90;;;;;;5015365;28;20044;-67
2022/07/05 03:38:14;;;;;;;9.32;1.27;;;13.10;99.90;;;;;;5015488;28;20026;-67
2022/07/05 03:40:40;;;;;;;7.18;1.23;;;13.20;99.90;;;;;;5015699;28;20033;-67
2022/07/05 03:43:05;;;;;;;5.22;1.00;;;13.20;99.90;;;;;;5015285;28;20025;-67
2022/07/05 03:45:31;;;;;;;6.68;1.25;;;13.30;99.90;;;;;;5015502;28;20441;-67
2022/07/05 03:48:00;;;;;;;5.32;1.45;;;13.30;99.90;;;;;;5015531;28;20030;-67
2022/07/05 03:50:27;;;;;;;7.72;1.17;;;13.30;99.90;;;;;;5015233;28;20557;-67
2022/07/05 03:52:52;;;;;;;5.38;1.25;;;13.20;99.90;;;;;;5015284;28;20022;-67
2022/07/05 03:55:18;;;;;;;4.68;1.23;;;13.20;99.90;;;;;;5015052;28;20080;-66
2022/07/05 03:57:45;;;;;;;3.92;0.98;;;13.20;99.90;;;;;;5015077;28;20080;-67
2022/07/05 04:00:11;;;;;;;8.13;1.52;;;13.20;99.90;;;;;;5015015;28;20513;-66
2022/07/05 04:02:36;;;;;;;6.93;1.80;;;13.20;99.90;;;;;;5014986;28;20497;-67
2022/07/05 04:05:02;;;;;;;15.82;2.15;;;13.30;99.90;;;;;;5014890;28;20057;-67
2022/07/05 04:07:28;;;;;;;9.32;1.38;;;13.30;99.90;;;;;;5014857;28;20033;-67
2022/07/05 04:09:53;;;;;;;10.05;1.52;;;13.30;99.90;;;;;;5014763;28;20105;-67
2022/07/05 04:12:19;;;;;;;7.55;1.65;;;13.30;99.90;;;;;;5015064;28;20108;-67
2022/07/05 04:14:44;;;;;;;11.13;1.73;;;13.40;99.90;;;;;;5014952;28;20355;-67
2022/07/05 04:17:10;;;;;;;4.25;1.40;;;13.50;99.90;;;;;;5014921;28;20422;-67
2022/07/05 04:19:36;;;;;;;9.90;1.40;;;13.60;99.90;;;;;;5014770;28;20108;-66
2022/07/05 04:22:01;;;;;;;9.18;1.50;;;13.60;99.90;;;;;;5014673;28;20057;-67
2022/07/05 04:24:27;;;;;;;11.05;1.40;;;13.70;99.90;;;;;;5014498;28;20022;-66
2022/07/05 04:26:53;;;;;;;14.50;2.03;;;13.90;99.90;;;;;;5014519;28;20072;-67
2022/07/05 04:29:18;;;;;;;7.05;1.30;;;14.00;99.90;;;;;;5014583;28;20033;-67
2022/07/05 04:31:44;;;;;;;11.13;1.92;;;14.10;99.90;;;;;;5013845;28;20062;-67
2022/07/05 04:34:09;;;;;;;13.13;1.90;;;14.30;99.90;;;;;;5014359;28;20029;-67
2022/07/05 04:36:36;;;;;;;8.80;1.73;;;14.40;99.90;;;;;;5014364;28;20065;-67
2022/07/05 04:39:03;;;;;;;4.07;1.15;;;14.50;99.90;;;;;;5014622;28;20398;-67
2022/07/05 04:41:29;;;;;;;10.27;1.48;;;14.60;99.90;;;;;;5014851;28;20014;-66
2022/07/05 04:43:54;;;;;;;6.28;1.92;;;14.70;99.90;;;;;;5014250;28;20033;-66
2022/07/05 04:46:20;;;;;;;9.65;1.50;;;15.00;99.90;;;;;;5013903;28;20101;-66
2022/07/05 04:48:46;;;;;;;7.03;2.08;;;15.20;99.90;;;;;;5014083;28;20030;-66
2022/07/05 04:51:11;;;;;;;8.73;1.25;;;15.10;99.90;;;;;;5014454;28;20025;-66
2022/07/05 04:53:37;;;;;;;7.35;1.50;;;15.20;99.90;;;;;;5014179;28;20026;-67
2022/07/05 04:56:02;;;;;;;13.52;2.45;;;15.20;99.90;;;;;;5013771;28;20057;-66
2022/07/05 04:58:28;;;;;;;6.95;1.65;;;15.30;99.90;;;;;;5014026;28;20367;-66
2022/07/05 05:00:53;;;;;;;7.57;1.15;;;15.40;99.90;;;;;;5013996;28;20022;-67
2022/07/05 05:03:20;;;;;;;11.90;2.10;;;15.40;99.90;;;;;;5014223;28;20026;-66
2022/07/05 05:05:46;;;;;;;12.38;1.70;;;15.40;99.90;;;;;;5014050;28;20036;-67
2022/07/05 05:08:11;;;;;;;9.75;1.13;;;15.50;99.90;;;;;;5013986;28;20030;-67
2022/07/05 05:10:37;;;;;;;7.15;1.10;;;15.60;99.90;;;;;;5013859;28;20109;-67
2022/07/05 05:13:02;;;;;;;5.97;1.60;;;15.60;99.90;;;;;;5013878;28;20371;-67
2022/07/05 05:15:28;;;;;;;10.93;1.90;;;15.50;99.90;;;;;;5013920;28;20109;-66
2022/07/05 05:17:53;;;;;;;5.43;1.17;;;15.40;99.90;;;;;;5014065;28;20041;-66
2022/07/05 05:20:19;;;;;;;8.30;1.17;;;15.30;99.90;;;;;;5013613;28;20483;-67
2022/07/05 05:22:46;;;;;;;10.60;1.58;;;15.30;99.90;;;;;;5014030;28;20022;-68
2022/07/05 05:25:12;;;;;;;8.70;1.55;;;15.10;99.90;;;;;;5013881;28;20026;-67
2022/07/05 05:27:46;;;;;;;11.38;1.13;;;15.20;99.90;;;;;;5013838;28;20489;-67
2022/07/05 05:30:12;;;;;;;13.20;2.35;;;15.30;99.90;;;;;;5013893;28;20053;-67
2022/07/05 05:32:38;;;;;;;7.53;1.30;;;15.30;99.90;;;;;;5013879;28;20025;-67
2022/07/05 05:35:04;;;;;;;8.23;1.73;;;15.20;99.90;;;;;;5013525;28;20038;-66
2022/07/05 05:37:30;;;;;;;8.13;1.38;;;15.40;99.90;;;;;;5013545;28;20102;-67
2022/07/05 05:39:56;;;;;;;10.65;1.88;;;15.40;99.90;;;;;;5010911;28;20533;-67
2022/07/05 05:42:22;;;;;;;8.43;1.20;;;15.40;99.90;;;;;;4994188;28;20057;-67
2022/07/05 05:44:47;;;;;;;12.25;2.28;;;15.40;99.90;;;;;;5007514;28;20041;-67
2022/07/05 05:47:13;;;;;;;10.85;1.67;;;15.50;99.90;;;;;;5017441;28;20048;-67
2022/07/05 05:49:38;;;;;;;7.70;1.20;;;15.40;99.90;;;;;;5017731;28;20113;-67
2022/07/05 05:52:04;;;;;;;7.38;1.50;;;15.10;99.90;;;;;;5017473;28;20034;-67
2022/07/05 05:54:29;;;;;;;9.63;1.73;;;14.80;99.90;;;;;;5017378;28;20030;-67
2022/07/05 05:56:55;;;;;;;5.57;1.48;;;14.50;99.90;;;;;;5017122;28;20394;-67
2022/07/05 05:59:20;;;;;;;9.40;1.42;;;14.40;99.90;;;;;;5017285;28;20364;-66
2022/07/05 06:01:46;;;;;;;8.90;1.52;;;14.30;99.90;;;;;;5017155;28;20125;-67
2022/07/05 06:04:12;;;;;;;7.90;1.40;;;14.30;99.90;;;;;;5017170;28;20030;-67
2022/07/05 06:06:37;;;;;;;12.55;1.42;;;14.30;99.90;;;;;;5017779;28;20030;-67
2022/07/05 06:09:03;;;;;;;7.35;1.48;;;14.10;99.90;;;;;;5017149;28;20022;-67
2022/07/05 06:11:28;;;;;;;5.97;1.27;;;14.20;99.90;;;;;;5017114;28;20030;-67
2022/07/05 06:13:54;;;;;;;4.80;1.00;;;14.20;99.90;;;;;;5016995;28;20049;-67
2022/07/05 06:16:20;;;;;;;8.60;1.73;;;14.40;99.90;;;;;;5016930;28;20026;-67
2022/07/05 06:18:45;;;;;;;6.38;1.60;;;14.50;99.90;;;;;;5017195;28;20029;-67
2022/07/05 06:21:11;;;;;;;5.35;1.05;;;14.60;99.90;;;;;;5017340;28;20026;-67
2022/07/05 06:23:36;;;;;;;6.95;1.10;;;14.70;99.90;;;;;;5017157;28;20030;-67
2022/07/05 06:26:02;;;;;;;6.97;1.15;;;14.80;99.90;;;;;;5017034;28;20504;-67
2022/07/05 06:28:27;;;;;;;8.40;1.05;;;15.10;99.90;;;;;;5016702;28;20486;-67
2022/07/05 06:30:53;;;;;;;4.18;1.50;;;15.20;99.90;;;;;;5016983;28;20478;-66
2022/07/05 06:33:20;;;;;;;6.70;1.63;;;15.40;99.90;;;;;;5016551;28;20104;-67
2022/07/05 06:35:45;;;;;;;9.25;1.45;;;15.40;99.90;;;;;;5016523;28;20445;-67
2022/07/05 06:38:11;;;;;;;2.35;0.88;;;15.50;99.90;;;;;;5016891;28;20046;-67
2022/07/05 06:40:44;;;;;;;2.47;0.77;;;15.50;99.90;;;;;;5016828;28;20444;-66
2022/07/05 06:43:11;;;;;;;5.47;1.10;;;15.60;99.90;;;;;;5016520;28;20443;-66
2022/07/05 06:45:37;;;;;;;2.67;0.85;;;15.70;99.90;;;;;;5016427;28;20108;-67
2022/07/05 06:48:05;;;;;;;2.65;0.90;;;15.80;99.90;;;;;;5016875;28;20066;-67
2022/07/05 06:50:33;;;;;;;8.32;1.38;;;16.10;99.90;;;;;;5016692;28;20474;-67
2022/07/05 06:52:58;;;;;;;6.78;2.67;;;16.30;99.90;;;;;;5016435;28;20486;-67
2022/07/05 06:55:25;;;;;;;2.58;0.90;;;16.50;99.90;;;;;;5015284;28;20123;-67
2022/07/05 06:58:03;;;;;;;3.40;0.82;;;16.40;99.90;;;;;;5090622;23;20051;-72
2022/07/05 07:00:28;;;;;;;3.40;0.70;;;16.30;99.90;;;;;;5056465;28;20017;-72
2022/07/05 07:02:55;;;;;;;5.95;1.70;;;16.20;99.90;;;;;;5056448;28;20112;-72
2022/07/05 07:05:20;;;;;;;9.65;1.45;;;16.30;99.90;;;;;;5056305;28;20104;-72
2022/07/05 07:10:30;;;;;;;;;;;17.30;99.90;;;;;;5058276;28;20116;-72
2022/07/05 07:12:57;;;;;;;9.13;1.27;;;17.50;99.90;;;;;;5056667;28;19948;-72
2022/07/05 07:15:22;;;;;;;4.57;1.20;;;17.50;99.90;;;;;;5056168;28;20040;-72
2022/07/05 07:17:48;;;;;;;13.38;1.38;;;17.40;99.90;;;;;;5056150;28;20017;-72
2022/07/05 07:20:14;;;;;;;9.50;1.02;;;17.20;99.90;;;;;;5056122;28;20435;-72
2022/07/05 07:22:39;;;;;;;5.97;0.98;;;17.00;99.90;;;;;;5056072;28;20021;-72
2022/07/05 07:25:08;;;;;;;12.80;3.17;;;17.00;99.90;;;;;;5056308;28;20024;-72
2022/07/05 07:27:44;;;;;;;7.13;1.50;;;17.20;99.90;;;;;;5038076;28;20032;-72
2022/07/05 07:30:14;;;;;;;8.90;1.50;;;17.70;99.90;;;;;;5056094;28;20075;-72
2022/07/05 07:32:40;;;;;;;4.85;1.20;;;18.40;99.90;;;;;;5056490;28;20086;-72
2022/07/05 07:35:07;;;;;;;10.50;1.25;;;18.80;99.90;;;;;;5055776;28;20103;-72
2022/07/05 07:37:33;;;;;;;8.80;1.60;;;19.00;99.90;;;;;;5037771;28;20025;-71
2022/07/05 07:39:58;;;;;;;8.48;1.30;;;18.90;99.90;;;;;;5056275;28;20385;-71
2022/07/05 07:42:24;;;;;;;8.30;1.58;;;19.00;99.90;;;;;;5055988;28;20025;-71
2022/07/05 07:44:50;;;;;;;8.18;1.10;;;18.90;99.90;;;;;;5055437;28;20029;-71
2022/07/05 07:47:15;;;;;;;12.43;1.30;;;18.60;99.90;;;;;;5055449;28;20025;-69
2022/07/05 07:49:41;;;;;;;6.35;1.35;;;17.90;99.90;;;;;;5055430;28;20029;-69
2022/07/05 07:52:07;;;;;;;9.60;1.10;;;17.20;99.90;;;;;;5055908;28;20029;-69
2022/07/05 07:54:33;;;;;;;10.13;1.25;;;16.70;99.90;;;;;;5055248;28;20033;-70
2022/07/05 07:56:59;;;;;;;9.15;1.27;;;16.50;99.90;;;;;;5054959;28;20036;-69
2022/07/05 07:59:25;;;;;;;8.25;1.20;;;16.30;99.90;;;;;;5055198;28;20025;-69
2022/07/05 08:01:50;;;;;;;3.10;0.80;;;16.20;99.90;;;;;;5055065;28;20028;-69
2022/07/05 08:04:16;;;;;;;1.75;0.90;;;16.20;99.90;;;;;;5054945;28;20511;-69
2022/07/05 08:06:43;;;;;;;4.35;1.02;;;16.30;99.90;;;;;;5054061;28;20021;-69
2022/07/05 08:09:09;;;;;;;3.90;1.02;;;16.30;99.90;;;;;;5055262;28;20025;-69
2022/07/05 08:11:35;;;;;;;3.70;1.50;;;16.40;99.90;;;;;;5055004;28;20036;-70
2022/07/05 08:14:00;;;;;;;7.38;1.10;;;16.50;99.90;;;;;;5055149;28;20029;-69
2022/07/05 08:16:26;;;;;;;3.40;1.48;;;16.50;99.90;;;;;;5054756;28;20096;-68
2022/07/05 08:21:38;;;;;;;2.85;0.80;;;16.50;99.90;;;;;;5054832;28;20032;-69
2022/07/05 08:24:08;;;;;;;2.42;0.85;;;16.60;99.90;;;;;;5054655;28;20029;-69
2022/07/05 08:26:35;;;;;;;6.22;1.00;;;16.60;99.90;;;;;;5054612;28;20032;-69
2022/07/05 08:29:02;;;;;;;10.50;1.00;;;16.80;99.90;;;;;;5055070;28;20031;-69
2022/07/05 08:31:29;;;;;;;3.63;0.80;;;16.70;99.90;;;;;;5054467;28;20094;-70
2022/07/05 08:33:56;;;;;;;3.78;0.88;;;16.90;99.90;;;;;;5054458;28;20473;-70
2022/07/05 08:36:21;;;;;;;6.10;0.90;;;16.90;99.90;;;;;;5054553;28;20457;-70
2022/07/05 08:38:47;;;;;;;2.80;0.77;;;16.90;99.90;;;;;;5054339;28;20032;-70
2022/07/05 08:41:14;;;;;;;14.38;1.52;;;17.20;99.90;;;;;;5047166;28;20026;-70
2022/07/05 08:43:42;;;;;;;6.15;0.77;;;17.30;99.90;;;;;;5034474;28;20048;-71
2022/07/05 08:46:13;;;;;;;2.05;1.00;;;17.50;99.90;;;;;;5037533;28;20108;-71
2022/07/05 08:48:43;;;;;;;2.65;1.30;;;17.70;99.90;;;;;;5053924;28;20029;-70
2022/07/05 08:51:17;;;;;;;3.00;0.73;;;17.90;99.90;;;;;;5054471;28;20032;-70
2022/07/05 08:53:43;;;;;;;;;;;18.20;99.90;;;;;;5054557;28;20096;-70
2022/07/05 08:56:10;;;;;;;12.52;0.85;;;18.30;99.90;;;;;;5053852;28;20303;-70
2022/07/05 08:58:37;;;;;;;1.08;0.60;;;18.50;99.90;;;;;;5054250;28;20512;-70
2022/07/05 09:01:03;;;;;;;8.25;1.00;;;18.70;99.90;;;;;;5053844;28;20033;-70
2022/07/05 09:03:43;;;;;;;3.35;0.93;;;18.70;99.90;;;;;;5053544;28;20431;-70
2022/07/05 09:06:11;;;;;;;7.18;1.75;;;18.70;99.90;;;;;;5054123;28;20044;-70
2022/07/05 09:08:39;;;;;;;4.30;1.35;;;18.70;99.90;;;;;;5053924;28;20029;-70
2022/07/05 09:11:08;;;;;;;15.27;1.45;;;18.50;99.90;;;;;;5053860;28;20118;-70
2022/07/05 09:13:38;;;;;;;7.22;1.00;;;18.30;99.90;;;;;;5054079;28;20147;-70
2022/07/05 09:16:04;;;;;;;15.75;1.48;;;18.20;99.90;;;;;;5054004;28;20092;-70
2022/07/05 09:18:39;;;;;;;8.73;1.80;;;18.10;99.90;;;;;;5035543;28;20423;-70
2022/07/05 09:21:13;;;;;;;12.40;1.55;;;17.90;99.90;;;;;;5054124;28;20488;-70
2022/07/05 09:23:40;;;;;;;8.68;1.40;;;17.80;99.90;;;;;;5054088;28;20158;-70
2022/07/05 09:26:05;;;;;;;12.20;1.05;;;17.70;99.90;;;;;;5053819;28;20036;-70
2022/07/05 09:28:31;;;;;;;5.47;1.00;;;17.60;99.90;;;;;;5053744;28;20025;-70
2022/07/05 09:30:56;;;;;;;4.00;1.00;;;17.40;99.90;;;;;;5055532;28;20383;-70
2022/07/05 09:33:22;;;;;;;11.00;1.83;;;17.50;99.90;;;;;;5055722;28;20071;-70
2022/07/05 09:35:57;;;;;;;6.18;1.70;;;17.30;99.90;;;;;;5054086;28;20064;-69
2022/07/05 09:38:24;;;;;;;10.63;1.20;;;17.30;99.90;;;;;;5033723;28;20075;-70
2022/07/05 09:40:53;;;;;;;6.18;1.50;;;17.50;99.90;;;;;;5033961;28;20028;-70
2022/07/05 09:43:27;;;;;;;6.72;1.40;;;17.60;99.90;;;;;;5033710;28;20090;-70
2022/07/05 09:45:56;;;;;;;5.72;1.10;;;17.80;99.90;;;;;;5033846;28;20029;-70
2022/07/05 09:48:23;;;;;;;8.40;1.23;;;17.70;99.90;;;;;;5033532;28;20022;-70
2022/07/05 09:50:51;;;;;;;6.43;1.02;;;17.60;99.90;;;;;;5052459;28;20052;-70
2022/07/05 09:53:17;;;;;;;15.02;1.83;;;17.50;99.90;;;;;;5053382;28;20481;-70
2022/07/05 09:56:02;;;;;;;7.20;1.38;;;17.40;99.90;;;;;;5053331;28;20037;-70
2022/07/05 09:58:28;;;;;;;3.33;0.85;;;17.60;99.90;;;;;;5053814;28;20025;-70
2022/07/05 10:00:53;;;;;;;11.15;1.30;;;17.80;99.90;;;;;;5053480;28;20025;-70
2022/07/05 10:03:19;;;;;;;8.68;1.15;;;18.30;99.90;;;;;;5053337;28;20027;-70
2022/07/05 10:05:44;;;;;;;11.15;1.13;;;18.50;99.90;;;;;;5053278;28;20111;-70
2022/07/05 10:08:12;;;;;;;4.25;0.82;;;18.70;99.90;;;;;;5053261;28;20040;-70
2022/07/05 10:10:38;;;;;;;6.95;1.50;;;19.00;99.90;;;;;;5053150;28;20481;-70
2022/07/05 10:13:07;;;;;;;3.72;0.73;;;18.90;99.90;;;;;;5053585;28;20033;-70
2022/07/05 10:15:34;;;;;;;3.35;0.95;;;18.80;99.90;;;;;;5053222;28;20068;-70
2022/07/05 10:18:07;;;;;;;2.03;0.70;;;19.00;99.90;;;;;;5053439;28;20036;-70
2022/07/05 10:20:43;;;;;;;0.80;0.52;;;19.20;99.90;;;;;;5035473;28;20028;-71
2022/07/05 10:23:10;;;;;;;8.38;1.40;;;19.30;99.90;;;;;;5053034;28;20047;-71
2022/07/05 10:25:38;;;;;;;4.68;0.80;;;19.40;99.90;;;;;;5053201;28;20036;-71
2022/07/05 10:28:07;;;;;;;4.47;0.75;;;19.30;99.90;;;;;;5053020;28;20021;-70
2022/07/05 10:30:33;;;;;;;5.45;1.10;;;19.20;99.90;;;;;;5055310;28;20033;-71
2022/07/05 10:33:02;;;;;;;9.50;1.30;;;19.10;99.90;;;;;;5056676;28;20028;-70
2022/07/05 10:35:28;;;;;;;3.47;0.80;;;18.70;99.90;;;;;;5056963;28;20083;-70
2022/07/05 10:37:54;;;;;;;6.45;1.30;;;18.60;99.90;;;;;;5056581;28;20025;-70
2022/07/05 10:40:19;;;;;;;4.28;1.08;;;18.50;99.90;;;;;;5056686;28;20064;-70
2022/07/05 10:42:47;;;;;;;3.85;0.90;;;18.50;99.90;;;;;;5056663;28;20044;-70
2022/07/05 10:45:32;;;;;;;5.57;1.77;;;18.30;99.90;;;;;;5056514;28;20388;-71
2022/07/05 10:48:09;;;;;;;9.60;2.35;;;18.30;99.90;;;;;;5056790;28;20407;-71
2022/07/05 10:51:06;;;;;;;6.95;1.20;;;18.40;99.90;;;;;;5056816;28;20029;-71
2022/07/05 10:53:37;;;;;;;6.10;1.45;;;18.40;99.90;;;;;;5056699;28;20028;-70
2022/07/05 10:56:03;;;;;;;7.05;1.27;;;18.30;99.90;;;;;;5056361;28;20048;-70
2022/07/05 10:58:29;;;;;;;9.85;1.27;;;18.50;99.90;;;;;;5056666;28;20063;-70
2022/07/05 11:01:20;;;;;;;12.30;1.45;;;18.90;99.90;;;;;;5038362;28;20033;-70
2022/07/05 11:03:47;;;;;;;12.90;1.80;;;19.30;99.90;;;;;;5056138;28;20044;-71
2022/07/05 11:06:23;;;;;;;9.07;1.63;;;19.40;99.90;;;;;;5056130;28;20021;-71
2022/07/05 11:09:04;;;;;;;8.80;1.10;;;19.30;99.90;;;;;;5056761;28;20116;-71
2022/07/05 11:11:31;;;;;;;8.90;1.40;;;19.00;99.90;;;;;;5056057;28;20021;-70
2022/07/05 11:13:59;;;;;;;14.25;2.60;;;19.00;99.90;;;;;;5055839;28;20174;-71
2022/07/05 11:16:27;;;;;;;7.95;1.40;;;18.70;99.90;;;;;;5056208;28;20512;-71
2022/07/05 11:19:07;;;;;;;8.82;1.60;;;18.60;99.90;;;;;;5056090;28;20025;-71
2022/07/05 11:21:33;;;;;;;8.40;2.03;;;18.40;99.90;;;;;;5056180;28;20465;-70
2022/07/05 11:24:22;;;;;;;23.30;4.13;;;18.00;99.90;;;;;;5056217;28;20040;-70
2022/07/05 11:26:50;;;;;;;16.35;2.38;;;17.30;99.90;;;;;;5055695;28;20027;-68
2022/07/05 11:29:43;;;;;;;12.68;2.15;;;16.50;99.90;;;;;;5055815;28;20025;-69
2022/07/05 11:32:14;;;;;;;7.97;2.00;;;15.90;99.90;;;;;;5055681;28;20052;-69
2022/07/05 11:34:41;;;;;;;10.25;1.83;;;15.50;99.90;;;;;;5055545;28;20032;-69
2022/07/05 11:37:16;;;;;;;14.43;2.17;;;15.40;99.90;;;;;;5055468;28;20496;-69
2022/07/05 11:39:42;;;;;;;15.23;1.95;;;15.50;99.90;;;;;;5055633;28;20029;-69
2022/07/05 11:42:11;;;;;;;12.75;1.75;;;15.80;99.90;;;;;;5055276;28;20481;-69
2022/07/05 11:44:40;;;;;;;9.85;2.05;;;16.10;99.90;;;;;;5055630;28;20029;-69
2022/07/05 11:47:05;;;;;;;7.70;1.30;;;16.40;99.90;;;;;;5055379;28;20031;-70
2022/07/05 11:49:31;;;;;;;11.80;1.48;;;16.80;99.90;;;;;;5055453;28;20025;-70
2022/07/05 11:51:58;;;;;;;7.07;2.03;;;16.90;99.90;;;;;;5055668;28;20045;-69
2022/07/05 11:54:28;;;;;;;6.20;1.48;;;17.20;99.90;;;;;;5056854;28;20389;-69
2022/07/05 11:56:54;;;;;;;14.30;2.28;;;17.40;99.90;;;;;;5055851;28;20024;-69
2022/07/05 11:59:21;;;;;;;8.73;1.98;;;17.90;99.90;;;;;;5055124;28;20071;-69
2022/07/05 12:01:47;;;;;;;11.32;1.58;;;18.00;99.90;;;;;;5055554;28;20051;-70
2022/07/05 12:04:30;;;;;;;7.32;1.27;;;18.30;99.90;;;;;;5055423;28;20481;-70
2022/07/05 12:06:57;;;;;;;7.03;1.33;;;18.40;99.90;;;;;;5055393;28;20029;-70
2022/07/05 12:09:24;;;;;;;5.60;1.30;;;18.30;99.90;;;;;;5055084;28;20025;-69
2022/07/05 12:14:35;;;;;;;10.45;1.60;;;19.30;99.90;;;;;;5054847;28;20071;-70
2022/07/05 12:17:15;;;;;;;10.82;1.23;;;19.20;99.90;;;;;;5055379;28;20064;-70
2022/07/05 12:19:41;;;;;;;7.93;1.30;;;19.00;99.90;;;;;;5055488;28;20040;-69
2022/07/05 12:22:06;;;;;;;11.88;1.83;;;19.10;99.90;;;;;;5054834;28;20028;-70
2022/07/05 12:24:32;;;;;;;8.13;1.70;;;18.90;99.90;;;;;;5054872;28;20029;-70
2022/07/05 12:26:58;;;;;;;9.13;0.80;;;19.00;99.90;;;;;;5054700;28;20088;-70
2022/07/05 12:29:23;;;;;;;9.10;1.20;;;18.90;99.90;;;;;;5054731;28;20094;-70
2022/07/05 12:32:08;;;;;;;7.10;1.15;;;18.80;99.90;;;;;;5054563;28;20028;-70
2022/07/05 12:34:34;;;;;;;6.47;0.98;;;18.70;99.90;;;;;;5054563;28;20021;-70
2022/07/05 12:37:00;;;;;;;5.10;1.08;;;18.80;99.90;;;;;;5054563;28;20017;-70
2022/07/05 12:39:26;;;;;;;12.05;1.45;;;19.10;99.90;;;;;;5053814;28;20487;-70
2022/07/05 12:41:52;;;;;;;9.75;1.67;;;19.50;99.90;;;;;;5054895;28;20025;-70
2022/07/05 12:44:21;;;;;;;4.53;0.82;;;19.80;99.90;;;;;;5054470;28;20032;-70
2022/07/05 12:46:49;;;;;;;11.88;1.40;;;20.70;99.90;;;;;;5054465;28;20048;-70
2022/07/05 12:49:15;;;;;;;2.67;0.88;;;21.10;99.90;;;;;;5054169;28;20028;-70
2022/07/05 12:51:42;;;;;;;7.53;1.15;;;20.70;99.90;;;;;;5054464;28;20037;-71